createdAt,value
2023-01-25T00:01:23.723Z,102596.53
2023-01-25T00:04:29.184Z,102585.66
2023-01-25T00:07:34.643Z,102589.03
2023-01-25T00:10:40.011Z,102591.50
2023-01-25T00:13:45.228Z,102585.66
2023-01-25T00:16:52.400Z,102587.28
2023-01-25T00:19:57.671Z,102583.16
2023-01-25T00:23:02.629Z,102582.28
2023-01-25T00:26:08.691Z,102584.34
2023-01-25T00:29:14.987Z,102584.00
2023-01-25T00:32:43.992Z,102577.28
2023-01-25T00:35:51.345Z,102575.63
2023-01-25T00:38:56.684Z,102559.56
2023-01-25T00:42:01.904Z,102548.59
2023-01-25T00:45:08.872Z,102557.13
2023-01-25T00:48:15.934Z,102543.53
2023-01-25T00:51:21.063Z,102539.53
2023-01-25T00:54:26.872Z,102531.84
2023-01-25T00:57:32.139Z,102537.06
2023-01-25T01:00:37.278Z,102529.38
2023-01-25T01:03:43.909Z,102531.06
2023-01-25T01:06:49.120Z,102519.97
2023-01-25T01:09:54.321Z,102512.41
2023-01-25T01:13:00.700Z,102514.22
2023-01-25T01:16:08.351Z,102506.72
2023-01-25T01:19:15.923Z,102497.44
2023-01-25T01:22:21.254Z,102508.13
2023-01-25T01:25:26.551Z,102498.06
2023-01-25T01:28:32.051Z,102495.50
2023-01-25T01:31:37.594Z,102483.25
2023-01-25T01:35:04.542Z,102468.00
2023-01-25T01:38:09.684Z,102467.94
2023-01-25T01:41:15.536Z,102466.34
2023-01-25T01:44:24.326Z,102457.72
2023-01-25T01:47:46.008Z,102460.28
2023-01-25T01:50:58.308Z,102459.38
2023-01-25T01:54:06.894Z,102451.88
2023-01-25T01:57:16.048Z,102456.09
2023-01-25T02:00:24.322Z,102451.13
2023-01-25T02:03:30.333Z,102439.44
2023-01-25T02:06:43.983Z,102447.88
2023-01-25T02:09:50.798Z,102455.34
2023-01-25T02:12:57.952Z,102443.59
2023-01-25T02:16:03.375Z,102446.91
2023-01-25T02:19:10.321Z,102427.66
2023-01-25T02:22:18.305Z,102444.41
2023-01-25T02:25:25.068Z,102437.06
2023-01-25T02:28:33.663Z,102429.22
2023-01-25T02:31:39.172Z,102431.06
2023-01-25T02:34:44.416Z,102427.56
2023-01-25T02:37:49.901Z,102431.84
2023-01-25T02:40:59.304Z,102430.00
2023-01-25T02:44:10.342Z,102425.97
2023-01-25T02:47:15.783Z,102412.56
2023-01-25T02:50:21.675Z,102408.19
2023-01-25T02:53:27.607Z,102400.81
2023-01-25T02:56:34.389Z,102393.88
2023-01-25T02:59:40.038Z,102394.78
2023-01-25T03:02:45.937Z,102396.31
2023-01-25T03:05:51.119Z,102391.25
2023-01-25T03:08:56.236Z,102383.94
2023-01-25T03:12:03.061Z,102382.25
2023-01-25T03:15:11.957Z,102384.66
2023-01-25T03:18:17.219Z,102377.78
2023-01-25T03:21:24.180Z,102374.56
2023-01-25T03:24:29.269Z,102369.47
2023-01-25T03:27:36.103Z,102363.72
2023-01-25T03:30:45.506Z,102372.13
2023-01-25T03:33:50.727Z,102363.13
2023-01-25T03:36:58.340Z,102346.72
2023-01-25T03:40:04.092Z,102344.38
2023-01-25T03:43:14.390Z,102346.16
2023-01-25T03:46:19.500Z,102334.28
2023-01-25T03:49:25.038Z,102335.06
2023-01-25T03:52:38.481Z,102315.53
2023-01-25T03:55:45.687Z,102313.97
2023-01-25T03:58:52.426Z,102307.97
2023-01-25T04:01:57.662Z,102312.97
2023-01-25T04:05:02.959Z,102316.53
2023-01-25T04:08:08.440Z,102300.44
2023-01-25T04:11:17.420Z,102303.84
2023-01-25T04:14:42.736Z,102291.16
2023-01-25T04:17:50.733Z,102287.75
2023-01-25T04:21:00.567Z,102277.66
2023-01-25T04:24:05.821Z,102278.41
2023-01-25T04:27:15.375Z,102272.47
2023-01-25T04:30:32.747Z,102271.75
2023-01-25T04:33:40.193Z,102264.22
2023-01-25T04:36:46.781Z,102271.03
2023-01-25T04:39:52.076Z,102270.09
2023-01-25T04:42:58.791Z,102263.28
2023-01-25T04:46:06.274Z,102253.31
2023-01-25T04:49:12.620Z,102254.91
2023-01-25T04:52:20.873Z,102251.53
2023-01-25T04:55:26.308Z,102255.88
2023-01-25T04:58:33.828Z,102242.38
2023-01-25T05:01:41.544Z,102251.03
2023-01-25T05:04:47.470Z,102243.34
2023-01-25T05:07:52.818Z,102249.09
2023-01-25T05:10:58.227Z,102238.09
2023-01-25T05:14:38.895Z,102241.50
2023-01-25T05:17:46.541Z,102246.59
2023-01-25T05:20:57.038Z,102234.75
2023-01-25T05:24:04.357Z,102234.72
2023-01-25T05:27:12.080Z,102234.00
2023-01-25T05:30:32.197Z,102235.59
2023-01-25T05:33:49.486Z,102229.75
2023-01-25T05:36:56.488Z,102232.41
2023-01-25T05:40:01.829Z,102225.53
2023-01-25T05:43:10.094Z,102227.19
2023-01-25T05:46:17.597Z,102209.53
2023-01-25T05:49:25.361Z,102224.69
2023-01-25T05:52:31.129Z,102211.25
2023-01-25T05:55:37.881Z,102218.06
2023-01-25T05:58:47.985Z,102220.59
2023-01-25T06:01:55.183Z,102218.78
2023-01-25T06:05:02.026Z,102202.66
2023-01-25T06:08:07.830Z,102206.19
2023-01-25T06:11:24.428Z,102200.38
2023-01-25T06:14:31.988Z,102200.38
2023-01-25T06:17:37.277Z,102189.38
2023-01-25T06:20:58.809Z,102180.84
2023-01-25T06:24:14.545Z,102174.84
2023-01-25T06:27:19.843Z,102164.81
2023-01-25T06:30:24.955Z,102176.66
2023-01-25T06:33:30.089Z,102181.69
2023-01-25T06:36:36.958Z,102169.81
2023-01-25T06:39:42.086Z,102166.44
2023-01-25T06:42:47.202Z,102153.78
2023-01-25T06:45:52.638Z,102172.47
2023-01-25T06:48:57.944Z,102159.78
2023-01-25T06:52:05.160Z,102168.25
2023-01-25T06:55:14.123Z,102161.47
2023-01-25T06:58:19.919Z,102158.88
2023-01-25T07:01:27.714Z,102165.66
2023-01-25T07:04:33.148Z,102152.19
2023-01-25T07:07:39.613Z,102145.34
2023-01-25T07:10:44.955Z,102136.09
2023-01-25T07:13:50.852Z,102134.47
2023-01-25T07:16:56.765Z,102131.91
2023-01-25T07:20:01.876Z,102142.00
2023-01-25T07:23:09.184Z,102133.50
2023-01-25T07:26:18.814Z,102132.13
2023-01-25T07:29:24.333Z,102135.41
2023-01-25T07:32:29.386Z,102112.63
2023-01-25T07:35:34.615Z,102128.72
2023-01-25T07:38:41.237Z,102116.75
2023-01-25T07:41:46.385Z,102124.44
2023-01-25T07:44:53.378Z,102110.91
2023-01-25T07:48:00.013Z,102109.25
2023-01-25T07:51:22.678Z,102106.75
2023-01-25T07:54:29.576Z,102106.84
2023-01-25T07:57:34.490Z,102104.25
2023-01-25T08:00:40.946Z,102104.31
2023-01-25T08:03:46.742Z,102108.63
2023-01-25T08:06:51.928Z,102099.34
2023-01-25T08:09:58.441Z,102088.34
2023-01-25T08:13:03.537Z,102096.81
2023-01-25T08:16:08.977Z,102087.53
2023-01-25T08:19:14.511Z,102093.47
2023-01-25T08:22:19.660Z,102078.25
2023-01-25T08:25:26.267Z,102081.69
2023-01-25T08:28:31.596Z,102061.34
2023-01-25T08:31:37.644Z,102074.13
2023-01-25T08:34:42.825Z,102058.00
2023-01-25T08:37:47.962Z,102058.81
2023-01-25T08:40:54.609Z,102054.63
2023-01-25T08:44:00.008Z,102057.16
2023-01-25T08:47:05.538Z,102044.44
2023-01-25T08:50:12.061Z,102038.53
2023-01-25T08:53:17.652Z,102045.31
2023-01-25T08:56:24.192Z,102047.84
2023-01-25T08:59:29.460Z,102047.00
2023-01-25T09:02:35.088Z,102059.72
2023-01-25T09:05:41.349Z,102050.44
2023-01-25T09:08:46.803Z,102055.53
2023-01-25T09:11:53.641Z,102052.16
2023-01-25T09:14:59.128Z,102053.00
2023-01-25T09:18:04.076Z,102057.22
2023-01-25T09:21:10.258Z,102052.16
2023-01-25T09:24:15.588Z,102049.63
2023-01-25T09:27:22.204Z,102040.31
2023-01-25T09:30:37.506Z,102036.97
2023-01-25T09:33:58.715Z,102030.25
2023-01-25T09:37:03.855Z,102036.97
2023-01-25T09:40:15.453Z,102025.16
2023-01-25T09:43:31.501Z,102009.03
2023-01-25T09:46:42.739Z,102016.69
2023-01-25T09:49:59.646Z,102001.44
2023-01-25T09:53:27.147Z,102007.34
2023-01-25T09:56:35.564Z,102005.66
2023-01-25T09:59:44.612Z,101999.75
2023-01-25T10:02:53.260Z,101988.72
2023-01-25T10:06:00.361Z,101993.81
2023-01-25T10:09:17.538Z,101988.72
2023-01-25T10:12:24.023Z,101992.97
2023-01-25T10:15:35.094Z,101987.09
2023-01-25T10:18:52.648Z,101986.25
2023-01-25T10:22:01.299Z,101986.22
2023-01-25T10:25:24.155Z,101970.16
2023-01-25T10:28:41.441Z,101972.72
2023-01-25T10:31:50.598Z,101965.94
2023-01-25T10:34:58.072Z,101964.28
2023-01-25T10:38:06.747Z,101950.69
2023-01-25T10:41:16.084Z,101950.69
2023-01-25T10:44:25.446Z,101943.88
2023-01-25T10:47:37.145Z,101934.56
2023-01-25T10:50:48.039Z,101929.47
2023-01-25T10:54:01.173Z,101922.72
2023-01-25T10:57:09.018Z,101919.31
2023-01-25T11:00:26.548Z,101911.66
2023-01-25T11:03:41.755Z,101907.44
2023-01-25T11:06:53.270Z,101906.59
2023-01-25T11:09:59.140Z,101901.50
2023-01-25T11:13:22.939Z,101908.28
2023-01-25T11:16:35.807Z,101878.63
2023-01-25T11:19:42.900Z,101882.00
2023-01-25T11:22:56.555Z,101866.75
2023-01-25T11:26:17.429Z,101887.94
2023-01-25T11:29:25.463Z,101890.50
2023-01-25T11:32:31.396Z,101872.69
2023-01-25T11:35:38.340Z,101870.16
2023-01-25T11:38:51.367Z,101857.44
2023-01-25T11:42:08.264Z,101845.56
2023-01-25T11:49:14.173Z,101835.41
2023-01-25T11:52:29.606Z,101831.19
2023-01-25T11:55:39.076Z,101835.38
2023-01-25T11:59:15.461Z,101833.69
2023-01-25T12:02:39.023Z,101854.84
2023-01-25T12:05:51.859Z,101847.19
2023-01-25T12:09:10.872Z,101842.13
2023-01-25T12:12:26.203Z,101843.78
2023-01-25T12:15:42.572Z,101842.09
2023-01-25T12:18:59.060Z,101852.22
2023-01-25T12:22:26.110Z,101858.97
2023-01-25T12:25:42.217Z,101848.78
2023-01-25T12:28:52.629Z,101858.06
2023-01-25T12:32:02.422Z,101856.34
2023-01-25T12:35:25.302Z,101863.94
2023-01-25T12:38:36.684Z,101848.75
2023-01-25T12:41:46.028Z,101866.50
2023-01-25T12:44:56.213Z,101866.50
2023-01-25T12:48:03.299Z,101875.81
2023-01-25T12:51:08.425Z,101861.38
2023-01-25T12:54:21.361Z,101868.97
2023-01-25T12:57:30.894Z,101865.53
2023-01-25T13:00:38.224Z,101857.97
2023-01-25T13:04:05.669Z,101849.50
2023-01-25T13:07:20.502Z,101857.94
2023-01-25T13:10:30.857Z,101845.25
2023-01-25T13:13:37.510Z,101851.09
2023-01-25T13:16:44.952Z,101847.75
2023-01-25T13:19:50.697Z,101845.19
2023-01-25T13:22:59.016Z,101829.13
2023-01-25T13:26:37.716Z,101829.06
2023-01-25T13:29:48.119Z,101833.34
2023-01-25T13:32:59.289Z,101828.25
2023-01-25T13:36:39.803Z,101820.59
2023-01-25T13:39:45.945Z,101817.25
2023-01-25T13:43:02.077Z,101818.09
2023-01-25T13:46:12.032Z,101811.31
2023-01-25T13:49:24.092Z,101809.63
2023-01-25T13:52:31.216Z,101804.56
2023-01-25T13:55:44.321Z,101805.38
2023-01-25T13:58:49.495Z,101800.25
2023-01-25T14:01:57.296Z,101795.19
2023-01-25T14:05:02.492Z,101788.41
2023-01-25T14:08:15.440Z,101790.13
2023-01-25T14:11:21.913Z,101798.56
2023-01-25T14:14:29.078Z,101787.56
2023-01-25T14:17:35.952Z,101774.91
2023-01-25T14:20:41.502Z,101777.41
2023-01-25T14:23:49.429Z,101777.41
2023-01-25T14:26:54.759Z,101773.22
2023-01-25T14:29:59.961Z,101766.41
2023-01-25T14:33:19.133Z,101764.75
2023-01-25T14:36:25.675Z,101762.16
2023-01-25T14:39:31.535Z,101766.44
2023-01-25T14:42:36.691Z,101771.50
2023-01-25T14:45:42.001Z,101768.97
2023-01-25T14:48:49.476Z,101779.13
2023-01-25T14:52:00.873Z,101765.59
2023-01-25T14:55:10.361Z,101767.28
2023-01-25T14:58:19.431Z,101757.97
2023-01-25T15:01:33.073Z,101770.63
2023-01-25T15:04:39.572Z,101768.13
2023-01-25T15:07:47.149Z,101768.13
2023-01-25T15:10:54.009Z,101783.31
2023-01-25T15:14:05.194Z,101778.22
2023-01-25T15:17:40.578Z,101774.00
2023-01-25T15:20:49.657Z,101758.78
2023-01-25T15:23:56.031Z,101778.22
2023-01-25T15:27:03.448Z,101768.94
2023-01-25T15:30:15.019Z,101768.13
2023-01-25T15:33:22.598Z,101760.53
2023-01-25T15:36:29.427Z,101757.94
2023-01-25T15:39:35.198Z,101761.31
2023-01-25T15:42:40.367Z,101752.03
2023-01-25T15:45:46.411Z,101755.41
2023-01-25T15:48:52.523Z,101748.63
2023-01-25T15:51:59.455Z,101735.97
2023-01-25T15:55:04.861Z,101725.81
2023-01-25T15:58:12.465Z,101735.06
2023-01-25T16:01:17.968Z,101719.03
2023-01-25T16:04:25.299Z,101711.44
2023-01-25T16:07:32.071Z,101719.91
2023-01-25T16:10:37.254Z,101716.50
2023-01-25T16:13:42.242Z,101718.19
2023-01-25T16:16:49.882Z,101714.78
2023-01-25T16:19:55.016Z,101703.81
2023-01-25T16:23:02.525Z,101704.66
2023-01-25T16:26:15.657Z,101706.34
2023-01-25T16:29:21.695Z,101709.75
2023-01-25T16:32:29.674Z,101698.75
2023-01-25T16:35:34.943Z,101702.13
2023-01-25T16:38:41.483Z,101702.97
2023-01-25T16:41:48.928Z,101686.88
2023-01-25T16:44:54.080Z,101693.66
2023-01-25T16:47:59.250Z,101683.50
2023-01-25T16:51:04.532Z,101691.97
2023-01-25T16:54:13.448Z,101697.84
2023-01-25T16:57:20.624Z,101691.09
2023-01-25T17:00:26.113Z,101696.16
2023-01-25T17:03:31.263Z,101687.72
2023-01-25T17:06:38.507Z,101681.78
2023-01-25T17:09:45.112Z,101677.59
2023-01-25T17:12:50.666Z,101677.59
2023-01-25T17:15:58.186Z,101684.34
2023-01-25T17:19:06.340Z,101686.03
2023-01-25T17:22:13.622Z,101695.31
2023-01-25T17:25:20.423Z,101691.13
2023-01-25T17:28:27.325Z,101703.78
2023-01-25T17:31:34.661Z,101693.63
2023-01-25T17:34:40.066Z,101695.31
2023-01-25T17:37:45.301Z,101695.34
2023-01-25T17:40:51.940Z,101711.41
2023-01-25T17:43:57.701Z,101706.31
2023-01-25T17:47:02.788Z,101701.22
2023-01-25T17:50:09.662Z,101706.28
2023-01-25T17:53:15.371Z,101713.91
2023-01-25T17:56:22.426Z,101701.25
2023-01-25T17:59:27.616Z,101697.03
2023-01-25T18:02:32.829Z,101694.47
2023-01-25T18:05:39.519Z,101693.66
2023-01-25T18:08:46.049Z,101687.72
2023-01-25T18:11:52.622Z,101689.44
2023-01-25T18:14:58.050Z,101685.19
2023-01-25T18:18:03.295Z,101671.69
2023-01-25T18:21:10.865Z,101670.84
2023-01-25T18:24:27.949Z,101664.03
2023-01-25T18:27:34.991Z,101662.38
2023-01-25T18:30:45.148Z,101664.09
2023-01-25T18:33:50.147Z,101651.41
2023-01-25T18:36:58.418Z,101654.75
2023-01-25T18:40:03.591Z,101656.47
2023-01-25T18:43:10.313Z,101651.38
2023-01-25T18:46:15.619Z,101658.13
2023-01-25T18:49:22.834Z,101651.38
2023-01-25T18:52:27.991Z,101649.66
2023-01-25T18:55:33.545Z,101647.16
2023-01-25T18:58:40.599Z,101656.47
2023-01-25T19:01:46.266Z,101656.47
2023-01-25T19:04:51.604Z,101657.31
2023-01-25T19:07:56.872Z,101654.78
2023-01-25T19:11:02.929Z,101661.53
2023-01-25T19:14:10.258Z,101656.44
2023-01-25T19:17:18.392Z,101662.38
2023-01-25T19:20:23.653Z,101661.56
2023-01-25T19:23:34.827Z,101663.22
2023-01-25T19:26:40.615Z,101666.59
2023-01-25T19:29:47.117Z,101668.31
2023-01-25T19:32:52.325Z,101669.13
2023-01-25T19:36:01.402Z,101673.34
2023-01-25T19:39:10.079Z,101669.97
2023-01-25T19:42:18.525Z,101677.56
2023-01-25T19:45:25.557Z,101680.94
2023-01-25T19:48:32.364Z,101690.25
2023-01-25T19:51:39.810Z,101679.25
2023-01-25T19:54:44.940Z,101662.31
2023-01-25T19:57:50.132Z,101658.06
2023-01-25T20:00:56.820Z,101649.63
2023-01-25T20:04:02.320Z,101646.22
2023-01-25T20:07:08.363Z,101645.34
2023-01-25T20:10:14.267Z,101647.91
2023-01-25T20:13:19.502Z,101647.09
2023-01-25T20:16:27.249Z,101633.53
2023-01-25T20:19:32.891Z,101636.06
2023-01-25T20:22:38.280Z,101633.53
2023-01-25T20:25:43.436Z,101642.78
2023-01-25T20:28:51.653Z,101650.31
2023-01-25T20:31:58.249Z,101640.25
2023-01-25T20:35:06.118Z,101641.94
2023-01-25T20:38:11.378Z,101637.69
2023-01-25T20:41:17.603Z,101636.81
2023-01-25T20:44:22.743Z,101624.09
2023-01-25T20:47:29.269Z,101625.81
2023-01-25T20:50:34.605Z,101624.16
2023-01-25T20:53:39.774Z,101632.53
2023-01-25T20:56:48.141Z,101626.66
2023-01-25T20:59:54.474Z,101624.97
2023-01-25T21:03:01.271Z,101622.41
2023-01-25T21:06:08.515Z,101623.25
2023-01-25T21:09:14.193Z,101626.66
2023-01-25T21:12:19.050Z,101619.00
2023-01-25T21:15:25.692Z,101610.56
2023-01-25T21:18:33.773Z,101612.22
2023-01-25T21:21:39.205Z,101608.88
2023-01-25T21:24:44.387Z,101612.25
2023-01-25T21:27:50.142Z,101624.03
2023-01-25T21:30:55.159Z,101628.31
2023-01-25T21:34:02.392Z,101626.66
2023-01-25T21:37:08.074Z,101627.47
2023-01-25T21:40:15.865Z,101621.53
2023-01-25T21:43:20.683Z,101625.78
2023-01-25T21:46:26.772Z,101624.06
2023-01-25T21:49:50.854Z,101618.13
2023-01-25T21:52:56.155Z,101621.53
2023-01-25T21:56:01.492Z,101607.19
2023-01-25T21:59:07.027Z,101611.41
2023-01-25T22:02:15.110Z,101624.06
2023-01-25T22:05:21.915Z,101615.59
2023-01-25T22:08:30.251Z,101629.94
2023-01-25T22:11:36.138Z,101636.72
2023-01-25T22:14:41.351Z,101647.69
2023-01-25T22:17:46.517Z,101648.56
2023-01-25T22:20:58.649Z,101651.91
2023-01-25T22:24:05.782Z,101655.31
2023-01-25T22:27:32.010Z,101663.75
2023-01-25T22:30:37.347Z,101635.88
2023-01-25T22:33:42.720Z,101661.22
2023-01-25T22:36:50.226Z,101657.03
2023-01-25T22:39:58.613Z,101653.63
2023-01-25T22:43:03.915Z,101655.31
2023-01-25T22:46:11.842Z,101654.44
2023-01-25T22:49:17.307Z,101653.56
2023-01-25T22:52:23.961Z,101658.66
2023-01-25T22:55:31.776Z,101655.31
2023-01-25T22:58:37.872Z,101646.81
2023-01-25T23:01:43.175Z,101635.00
2023-01-25T23:04:48.096Z,101623.16
2023-01-25T23:07:55.204Z,101630.78
2023-01-25T23:11:03.607Z,101628.25
2023-01-25T23:14:29.350Z,101628.25
2023-01-25T23:17:51.438Z,101635.00
2023-01-25T23:20:56.701Z,101633.28
2023-01-25T23:24:04.230Z,101631.59
2023-01-25T23:27:09.795Z,101638.38
2023-01-25T23:30:16.776Z,101638.38
2023-01-25T23:33:25.019Z,101648.47
2023-01-25T23:36:31.694Z,101645.06
2023-01-25T23:39:38.834Z,101644.25
2023-01-25T23:42:43.832Z,101639.16
2023-01-25T23:45:49.393Z,101651.00
2023-01-25T23:48:54.347Z,101640.84
2023-01-25T23:51:59.668Z,101654.38
2023-01-25T23:55:07.478Z,101647.59
2023-01-25T23:58:15.338Z,101648.47
